Time;durP1;ratioP1;P1;durP2;ratioP2;P2;SDS_P1;SDS_P2;PMS_P1;PMS_P2;Temp;Humidity;BMP_temperature;BMP_pressure;BME280_temperature;BME280_humidity;BME280_pressure;Samples;Min_cycle;Max_cycle;Signal;HPM_P1;HPM_P2
2022/06/16 00:00:39;;;;;;;6.40;4.43;;;24.10;73.70;;;;;;5074261;28;20190;-82
2022/06/16 00:03:07;;;;;;;8.87;4.77;;;24.00;73.90;;;;;;5064471;28;20517;-82
2022/06/16 00:05:37;;;;;;;8.00;4.63;;;24.00;74.00;;;;;;5078436;28;20208;-82
2022/06/16 00:08:07;;;;;;;8.30;4.70;;;24.00;74.20;;;;;;5059434;28;20210;-82
2022/06/16 00:10:36;;;;;;;9.03;4.83;;;24.00;74.20;;;;;;5053118;28;20193;-83
2022/06/16 00:13:04;;;;;;;7.87;4.73;;;24.10;75.00;;;;;;5077430;28;20760;-83
2022/06/16 00:15:31;;;;;;;8.27;4.70;;;24.00;74.30;;;;;;5075548;28;20207;-83
2022/06/16 00:17:59;;;;;;;6.47;4.30;;;24.00;74.30;;;;;;5054642;28;20217;-82
2022/06/16 00:20:27;;;;;;;11.60;5.30;;;24.00;74.50;;;;;;5072697;28;20206;-82
2022/06/16 00:22:54;;;;;;;9.07;4.80;;;24.00;74.60;;;;;;5054862;28;20234;-82
2022/06/16 00:25:21;;;;;;;7.97;4.73;;;24.00;74.70;;;;;;5079156;28;20201;-82
2022/06/16 00:27:48;;;;;;;8.37;5.27;;;23.90;74.90;;;;;;5061919;28;20218;-82
2022/06/16 00:30:16;;;;;;;9.57;5.57;;;23.90;75.20;;;;;;5058942;28;20218;-83
2022/06/16 00:32:43;;;;;;;7.47;5.13;;;23.80;75.40;;;;;;5062712;28;20313;-83
2022/06/16 00:35:12;;;;;;;9.80;5.53;;;23.80;75.50;;;;;;5060839;28;20234;-82
2022/06/16 00:37:40;;;;;;;8.17;5.43;;;23.70;75.60;;;;;;5044510;28;20643;-82
2022/06/16 00:40:09;;;;;;;7.60;5.43;;;23.70;75.80;;;;;;5050116;28;20653;-82
2022/06/16 00:42:37;;;;;;;6.80;5.00;;;23.70;76.00;;;;;;5071128;28;20201;-82
2022/06/16 00:45:43;;;;;;;7.87;5.20;;;23.60;76.00;;;;;;5031784;28;20270;-83
2022/06/16 00:48:15;;;;;;;7.07;5.67;;;23.60;76.10;;;;;;5037988;28;20288;-82
2022/06/16 00:50:44;;;;;;;11.30;5.87;;;23.60;76.20;;;;;;5044415;28;20329;-82
2022/06/16 00:53:12;;;;;;;7.00;5.43;;;23.60;76.20;;;;;;5057007;28;20543;-82
2022/06/16 00:55:39;;;;;;;6.17;5.03;;;23.60;76.20;;;;;;5049668;28;20192;-82
2022/06/16 00:58:09;;;;;;;9.07;5.80;;;23.60;76.20;;;;;;5060506;28;20293;-83
2022/06/16 01:03:09;;;;;;;10.73;5.30;;;23.50;76.40;;;;;;5048577;28;20269;-83
2022/06/16 01:05:37;;;;;;;10.83;5.63;;;23.50;76.50;;;;;;5043379;28;20199;-83
2022/06/16 01:08:04;;;;;;;12.17;6.10;;;23.50;76.80;;;;;;5040029;28;20274;-82
2022/06/16 01:10:44;;;;;;;10.13;5.27;;;23.50;77.10;;;;;;5022746;28;20286;-82
2022/06/16 01:13:41;;;;;;;7.73;5.30;;;23.50;77.50;;;;;;5060290;28;20213;-82
2022/06/16 01:16:24;;;;;;;15.67;5.70;;;23.50;77.50;;;;;;5051347;28;20267;-83
2022/06/16 01:19:19;;;;;;;7.37;5.80;;;23.50;77.50;;;;;;5045929;28;20195;-82
2022/06/16 01:22:14;;;;;;;7.63;5.23;;;23.40;77.70;;;;;;5059465;28;20194;-83
2022/06/16 01:25:08;;;;;;;8.20;5.30;;;23.40;77.90;;;;;;5023534;28;20662;-82
2022/06/16 01:27:35;;;;;;;11.80;5.37;;;23.30;78.00;;;;;;5066408;28;20216;-82
2022/06/16 01:30:17;;;;;;;7.30;5.40;;;23.30;78.00;;;;;;5048549;28;20284;-82
2022/06/16 01:33:32;;;;;;;7.93;5.40;;;23.30;78.00;;;;;;5035819;28;20208;-82
2022/06/16 01:36:13;;;;;;;8.83;5.83;;;23.30;78.00;;;;;;5025797;28;20631;-83
2022/06/16 01:38:52;;;;;;;7.27;5.93;;;23.30;78.10;;;;;;5044445;28;20199;-82
2022/06/16 01:41:48;;;;;;;10.87;5.37;;;23.20;78.30;;;;;;5047871;28;20206;-83
2022/06/16 01:44:24;;;;;;;11.60;6.03;;;23.20;78.40;;;;;;5048875;28;20240;-82
2022/06/16 01:46:57;;;;;;;6.33;5.27;;;23.20;78.20;;;;;;5062824;28;20343;-83
2022/06/16 01:49:33;;;;;;;8.73;6.23;;;23.20;78.30;;;;;;5056130;28;20660;-82
2022/06/16 01:52:14;;;;;;;8.40;6.03;;;23.20;78.40;;;;;;5057256;28;20206;-82
2022/06/16 01:54:49;;;;;;;8.97;5.53;;;23.10;78.60;;;;;;5061275;28;20209;-83
2022/06/16 01:57:42;;;;;;;9.97;6.40;;;23.10;78.60;;;;;;5061919;28;20194;-83
2022/06/16 02:00:20;;;;;;;14.13;6.37;;;23.10;78.80;;;;;;5054891;28;20199;-82
2022/06/16 02:02:58;;;;;;;16.73;6.90;;;23.10;79.10;;;;;;5063603;28;20206;-82
2022/06/16 02:05:28;;;;;;;17.37;5.57;;;23.00;79.30;;;;;;5059341;28;20275;-82
2022/06/16 02:08:13;;;;;;;8.67;5.40;;;23.00;79.40;;;;;;5057902;28;20275;-82
2022/06/16 02:10:47;;;;;;;10.00;5.77;;;23.00;79.50;;;;;;5047770;28;20230;-82
2022/06/16 02:13:21;;;;;;;6.17;5.53;;;23.10;79.60;;;;;;5065874;28;20226;-83
2022/06/16 02:16:08;;;;;;;8.90;6.40;;;23.00;79.60;;;;;;5064794;28;20569;-82
2022/06/16 02:18:41;;;;;;;9.93;6.50;;;23.00;79.50;;;;;;5074480;28;20388;-82
2022/06/16 02:21:12;;;;;;;9.70;6.87;;;23.00;79.50;;;;;;5069265;28;20278;-82
2022/06/16 02:23:42;;;;;;;13.00;6.47;;;22.90;79.50;;;;;;5057369;28;20223;-82
2022/06/16 02:26:10;;;;;;;14.60;6.47;;;22.90;79.50;;;;;;5076013;28;20198;-83
2022/06/16 02:28:46;;;;;;;14.00;6.40;;;23.00;79.50;;;;;;5063292;28;20199;-83
2022/06/16 02:31:25;;;;;;;12.90;6.50;;;22.90;79.60;;;;;;5062333;28;20191;-82
2022/06/16 02:34:17;;;;;;;13.17;5.73;;;22.90;79.80;;;;;;5065161;28;20688;-83
2022/06/16 02:37:13;;;;;;;12.47;6.23;;;22.90;80.00;;;;;;5059501;28;20209;-83
2022/06/16 02:40:05;;;;;;;9.27;6.03;;;22.90;80.00;;;;;;5067602;28;20202;-82
2022/06/16 02:42:47;;;;;;;11.77;5.53;;;22.80;80.00;;;;;;5045346;28;20198;-83
2022/06/16 02:45:38;;;;;;;9.77;5.50;;;22.80;80.10;;;;;;5078895;28;20207;-83
2022/06/16 02:48:10;;;;;;;8.10;5.90;;;22.80;81.10;;;;;;5076372;28;20304;-82
2022/06/16 02:51:01;;;;;;;11.00;5.80;;;22.80;80.50;;;;;;5079017;28;20221;-83
2022/06/16 02:56:46;;;;;;;9.33;5.50;;;22.80;80.60;;;;;;5064820;28;20230;-83
2022/06/16 02:59:21;;;;;;;6.47;4.93;;;22.80;80.60;;;;;;5058991;28;20215;-82
2022/06/16 03:01:51;;;;;;;7.27;5.43;;;22.80;80.60;;;;;;5064341;28;20217;-83
2022/06/16 03:04:22;;;;;;;6.67;5.10;;;22.80;80.60;;;;;;5049315;28;20210;-82
2022/06/16 03:06:50;;;;;;;9.23;5.10;;;22.70;80.50;;;;;;5063776;28;20211;-83
2022/06/16 03:09:19;;;;;;;6.70;5.40;;;22.80;80.40;;;;;;5072770;28;20334;-82
2022/06/16 03:11:47;;;;;;;7.57;5.07;;;22.80;80.30;;;;;;5046014;28;20623;-82
2022/06/16 03:14:14;;;;;;;6.73;5.60;;;22.80;80.00;;;;;;5048765;28;20190;-83
2022/06/16 03:16:46;;;;;;;6.23;5.00;;;22.70;79.70;;;;;;5064910;28;20203;-83
2022/06/16 03:19:17;;;;;;;8.50;4.93;;;22.70;79.70;;;;;;5044730;28;20223;-82
2022/06/16 03:21:45;;;;;;;11.63;4.97;;;22.70;79.80;;;;;;5047254;28;20210;-83
2022/06/16 03:24:12;;;;;;;7.30;4.83;;;22.70;79.80;;;;;;5064004;28;20732;-82
2022/06/16 03:26:40;;;;;;;9.10;6.10;;;22.70;79.80;;;;;;5065386;28;20225;-82
2022/06/16 03:29:08;;;;;;;11.03;5.93;;;22.70;80.00;;;;;;5060995;28;20214;-82
2022/06/16 03:31:37;;;;;;;7.83;6.20;;;22.60;80.10;;;;;;5063386;28;20209;-83
2022/06/16 03:34:08;;;;;;;7.20;6.43;;;22.60;80.10;;;;;;5064377;28;20579;-82
2022/06/16 03:36:37;;;;;;;7.70;6.10;;;22.60;80.10;;;;;;5043814;28;20271;-83
2022/06/16 03:39:08;;;;;;;10.43;6.07;;;22.60;80.20;;;;;;5053309;28;20199;-83
2022/06/16 03:41:46;;;;;;;10.80;5.70;;;22.60;80.30;;;;;;5046574;28;20580;-83
2022/06/16 03:44:15;;;;;;;10.73;6.37;;;22.50;80.60;;;;;;5055297;28;20288;-83
2022/06/16 03:46:45;;;;;;;12.17;6.07;;;22.50;80.70;;;;;;5058655;28;20207;-83
2022/06/16 03:49:15;;;;;;;7.93;6.17;;;22.50;80.80;;;;;;5066573;28;20260;-82
2022/06/16 03:51:49;;;;;;;7.33;5.90;;;22.50;80.90;;;;;;5051783;28;20225;-83
2022/06/16 03:54:25;;;;;;;8.63;5.37;;;22.50;81.10;;;;;;5045601;28;20217;-83
2022/06/16 03:56:58;;;;;;;7.00;5.60;;;22.50;81.20;;;;;;5060496;28;20198;-83
2022/06/16 03:59:26;;;;;;;7.07;6.03;;;22.50;81.10;;;;;;5063134;28;20302;-83
2022/06/16 04:02:00;;;;;;;10.43;5.77;;;22.50;81.30;;;;;;5040645;28;20218;-83
2022/06/16 04:04:32;;;;;;;11.60;6.10;;;22.50;81.40;;;;;;5074823;28;20673;-83
2022/06/16 04:07:03;;;;;;;7.93;6.43;;;22.50;81.50;;;;;;5064833;28;20595;-83
2022/06/16 04:09:34;;;;;;;11.60;6.90;;;22.50;81.40;;;;;;5077132;28;20253;-83
2022/06/16 04:12:05;;;;;;;8.53;6.27;;;22.50;81.40;;;;;;5068308;28;20213;-83
2022/06/16 04:14:33;;;;;;;12.43;6.20;;;22.50;81.50;;;;;;5059664;28;20217;-83
2022/06/16 04:17:05;;;;;;;10.87;6.97;;;22.50;81.60;;;;;;5055765;28;20203;-83
2022/06/16 04:20:11;;;;;;;9.30;6.33;;;22.50;81.70;;;;;;5069435;28;20274;-82
2022/06/16 04:22:34;;;;;;;10.23;5.90;;;22.60;81.80;;;;;;5066612;28;20260;-83
2022/06/16 04:25:14;;;;;;;10.33;6.17;;;22.60;81.80;;;;;;5044369;28;20206;-83
2022/06/16 04:27:43;;;;;;;7.20;6.10;;;22.60;81.60;;;;;;5060804;28;20224;-82
2022/06/16 04:30:15;;;;;;;8.93;5.70;;;22.70;81.60;;;;;;5061330;28;20222;-83
2022/06/16 04:32:44;;;;;;;8.83;6.97;;;22.70;81.50;;;;;;5039074;28;20260;-82
2022/06/16 04:35:13;;;;;;;8.73;6.10;;;22.80;81.60;;;;;;5056881;28;20195;-83
2022/06/16 04:38:12;;;;;;;13.97;7.20;;;22.80;81.60;;;;;;5060515;28;20210;-82
2022/06/16 04:40:41;;;;;;;9.53;6.80;;;22.90;81.60;;;;;;5063274;28;20277;-82
2022/06/16 04:43:15;;;;;;;12.70;6.63;;;23.00;81.70;;;;;;5063829;28;20234;-82
2022/06/16 04:45:49;;;;;;;11.53;6.83;;;23.10;81.70;;;;;;5059673;28;20246;-82
2022/06/16 04:48:19;;;;;;;16.80;6.70;;;23.20;81.70;;;;;;5045293;28;20306;-82
2022/06/16 04:50:47;;;;;;;13.37;7.00;;;23.20;81.40;;;;;;5049481;28;20236;-83
2022/06/16 04:53:21;;;;;;;12.93;6.87;;;23.30;81.00;;;;;;5047060;28;20203;-83
2022/06/16 04:56:13;;;;;;;6.90;5.90;;;23.40;81.10;;;;;;5061991;28;20268;-82
2022/06/16 04:58:54;;;;;;;9.77;6.50;;;23.40;81.10;;;;;;5053494;28;20199;-83
2022/06/16 05:01:33;;;;;;;11.70;6.30;;;23.60;81.20;;;;;;5031730;28;20202;-83
2022/06/16 05:04:03;;;;;;;8.67;6.90;;;23.60;80.80;;;;;;5050826;28;20221;-83
2022/06/16 05:06:43;;;;;;;11.23;6.37;;;23.70;80.50;;;;;;5062059;28;20198;-83
2022/06/16 05:09:17;;;;;;;9.17;6.30;;;23.90;80.20;;;;;;5047655;28;20275;-83
2022/06/16 05:12:01;;;;;;;8.73;6.00;;;24.00;79.70;;;;;;5049855;28;20202;-83
2022/06/16 05:14:47;;;;;;;11.10;6.97;;;24.10;79.10;;;;;;5048917;28;20221;-83
2022/06/16 05:17:43;;;;;;;13.40;6.10;;;24.30;78.40;;;;;;5050524;28;20210;-84
2022/06/16 05:20:31;;;;;;;14.03;6.20;;;24.50;77.80;;;;;;5055162;28;20234;-83
2022/06/16 05:23:18;;;;;;;7.37;5.60;;;24.70;77.30;;;;;;5050564;28;20256;-83
2022/06/16 05:26:12;;;;;;;12.80;6.60;;;24.90;76.40;;;;;;5030468;28;20218;-83
2022/06/16 05:28:58;;;;;;;7.90;6.27;;;25.00;75.50;;;;;;5066039;28;20207;-83
2022/06/16 05:31:51;;;;;;;12.60;6.70;;;25.10;75.30;;;;;;5041230;28;20353;-83
2022/06/16 05:34:31;;;;;;;11.77;6.40;;;25.20;75.00;;;;;;5062847;28;20205;-83
2022/06/16 05:37:10;;;;;;;12.20;6.10;;;25.30;74.30;;;;;;5039293;28;20215;-83
2022/06/16 05:39:56;;;;;;;12.07;6.23;;;25.30;74.30;;;;;;5060071;28;20210;-84
2022/06/16 05:42:42;;;;;;;7.00;6.00;;;25.40;74.40;;;;;;5042271;28;20226;-83
2022/06/16 05:45:18;;;;;;;10.47;6.20;;;25.50;74.50;;;;;;5057966;28;20214;-83
2022/06/16 05:48:01;;;;;;;11.90;6.17;;;25.60;74.10;;;;;;5068180;28;20229;-83
2022/06/16 05:50:32;;;;;;;13.07;5.93;;;25.70;73.60;;;;;;5073678;28;20218;-83
2022/06/16 05:53:01;;;;;;;8.03;5.10;;;25.80;73.60;;;;;;5064713;28;20216;-83
2022/06/16 05:55:34;;;;;;;14.03;5.90;;;26.00;73.30;;;;;;5063996;28;20213;-83
2022/06/16 05:58:02;;;;;;;17.10;6.20;;;26.10;73.20;;;;;;5046127;28;20206;-84
2022/06/16 06:00:35;;;;;;;16.50;6.97;;;26.20;72.90;;;;;;5034262;28;20269;-83
2022/06/16 06:03:08;;;;;;;15.43;6.57;;;26.40;72.50;;;;;;5047612;28;20617;-83
2022/06/16 06:05:39;;;;;;;10.77;6.40;;;26.50;71.10;;;;;;5065774;28;20227;-83
2022/06/16 06:16:36;;;;;;;9.17;5.77;;;26.90;69.40;;;;;;5079243;28;20221;-83
2022/06/16 06:22:07;;;;;;;8.53;4.83;;;27.10;69.40;;;;;;5063390;28;20220;-83
2022/06/16 06:24:36;;;;;;;7.40;5.70;;;27.30;69.10;;;;;;5056325;28;20213;-83
2022/06/16 06:27:19;;;;;;;9.90;4.97;;;27.50;68.50;;;;;;5066443;28;20360;-83
2022/06/16 06:29:50;;;;;;;11.80;6.03;;;27.60;67.80;;;;;;5044317;28;20225;-83
2022/06/16 06:32:20;;;;;;;8.73;4.73;;;27.80;66.90;;;;;;5049614;28;20204;-84
2022/06/16 06:34:48;;;;;;;15.53;6.43;;;27.90;67.10;;;;;;5049676;28;20201;-84
2022/06/16 06:37:20;;;;;;;18.63;6.90;;;28.10;66.70;;;;;;5062486;28;20202;-84
2022/06/16 06:39:48;;;;;;;9.10;5.83;;;28.20;66.20;;;;;;5064903;28;20206;-84
2022/06/16 06:42:15;;;;;;;10.23;5.77;;;28.30;65.40;;;;;;5046054;28;20221;-84
2022/06/16 06:44:43;;;;;;;13.00;6.20;;;28.40;65.60;;;;;;5062343;28;20303;-85
2022/06/16 06:47:30;;;;;;;11.40;6.27;;;28.50;64.90;;;;;;5065731;28;20202;-84
2022/06/16 06:49:58;;;;;;;10.37;6.30;;;28.70;64.40;;;;;;5049015;28;20317;-84
2022/06/16 06:52:25;;;;;;;10.37;6.87;;;28.80;64.50;;;;;;5047415;28;20235;-84
2022/06/16 06:54:53;;;;;;;11.13;7.10;;;28.90;64.30;;;;;;5063571;28;20490;-84
2022/06/16 06:57:25;;;;;;;12.00;5.57;;;29.00;62.90;;;;;;5047397;28;20236;-84
2022/06/16 06:59:52;;;;;;;12.83;5.77;;;29.00;62.90;;;;;;5067695;28;20253;-83
2022/06/16 07:02:21;;;;;;;8.03;5.73;;;29.00;62.30;;;;;;5073899;28;20207;-83
2022/06/16 07:04:48;;;;;;;10.53;5.80;;;29.10;62.10;;;;;;5049055;28;20606;-84
2022/06/16 07:07:23;;;;;;;11.40;5.63;;;29.20;61.90;;;;;;5080567;28;20198;-84
2022/06/16 07:09:51;;;;;;;14.33;6.43;;;29.40;61.70;;;;;;5060353;28;20767;-84
2022/06/16 07:12:19;;;;;;;11.97;6.30;;;29.50;61.20;;;;;;5069110;28;20229;-83
2022/06/16 07:14:49;;;;;;;10.20;5.97;;;29.70;60.50;;;;;;5074055;28;20622;-84
2022/06/16 07:17:19;;;;;;;11.43;6.33;;;29.80;60.30;;;;;;5061637;28;20193;-84
2022/06/16 07:19:47;;;;;;;6.37;5.43;;;29.90;60.30;;;;;;5063533;28;20225;-83
2022/06/16 07:22:15;;;;;;;11.00;5.10;;;30.00;59.80;;;;;;5043760;28;20210;-83
2022/06/16 07:24:43;;;;;;;14.03;5.63;;;30.20;59.10;;;;;;5056895;28;20273;-84
2022/06/16 07:27:13;;;;;;;8.43;5.37;;;30.40;58.50;;;;;;5049270;28;20290;-84
2022/06/16 07:29:40;;;;;;;7.53;5.13;;;30.50;58.20;;;;;;5062733;28;20213;-84
2022/06/16 07:32:13;;;;;;;9.20;5.60;;;30.60;57.50;;;;;;5060565;28;20234;-84
2022/06/16 07:34:41;;;;;;;12.63;5.60;;;30.80;57.40;;;;;;5077049;28;20221;-84
2022/06/16 07:37:09;;;;;;;9.37;5.63;;;30.90;56.50;;;;;;5063762;28;20209;-84
2022/06/16 07:39:37;;;;;;;10.53;5.83;;;31.10;56.00;;;;;;5060112;28;20278;-84
2022/06/16 07:42:05;;;;;;;11.97;5.27;;;31.10;55.40;;;;;;5057182;28;20207;-84
2022/06/16 07:44:33;;;;;;;10.53;6.07;;;31.10;56.10;;;;;;5057208;28;20248;-84
2022/06/16 07:47:00;;;;;;;12.53;6.30;;;31.10;56.40;;;;;;5068787;28;20307;-84
2022/06/16 07:49:29;;;;;;;9.53;5.67;;;31.20;55.30;;;;;;5058456;28;20209;-84
2022/06/16 07:52:00;;;;;;;9.93;5.33;;;31.40;55.40;;;;;;5070483;28;20238;-85
2022/06/16 07:54:28;;;;;;;8.10;4.83;;;31.50;55.10;;;;;;5063240;28;20463;-84
2022/06/16 07:57:16;;;;;;;14.43;5.70;;;31.70;55.30;;;;;;5064111;28;20194;-84
2022/06/16 07:59:53;;;;;;;12.33;5.20;;;32.00;53.80;;;;;;5077560;28;20211;-83
2022/06/16 08:02:20;;;;;;;8.63;5.67;;;32.00;53.60;;;;;;5075894;28;20225;-85
2022/06/16 08:04:49;;;;;;;13.23;6.13;;;32.00;53.60;;;;;;5047429;28;20214;-84
2022/06/16 08:07:17;;;;;;;6.77;5.73;;;31.80;53.30;;;;;;5079578;28;20213;-84
2022/06/16 08:09:48;;;;;;;13.23;6.20;;;31.60;53.70;;;;;;5066188;28;20282;-84
2022/06/16 08:12:19;;;;;;;9.80;5.70;;;31.50;53.70;;;;;;5068167;28;20207;-84
2022/06/16 08:14:49;;;;;;;15.70;6.07;;;31.20;53.60;;;;;;5077329;28;20190;-84
2022/06/16 08:17:34;;;;;;;10.17;6.50;;;31.00;54.60;;;;;;5061028;28;20209;-84
2022/06/16 08:20:02;;;;;;;18.00;5.80;;;30.90;54.80;;;;;;5040797;28;20546;-84
2022/06/16 08:22:29;;;;;;;17.50;7.17;;;30.70;55.30;;;;;;5063428;28;20263;-84
2022/06/16 08:24:58;;;;;;;13.63;5.33;;;30.60;56.60;;;;;;5069164;28;20222;-84
2022/06/16 08:27:33;;;;;;;14.20;5.60;;;30.60;56.60;;;;;;5059636;28;20294;-84
2022/06/16 08:30:03;;;;;;;7.90;5.80;;;30.70;57.10;;;;;;5064691;28;20186;-84
2022/06/16 08:32:31;;;;;;;9.67;5.33;;;30.80;57.20;;;;;;5063440;28;20233;-84
2022/06/16 08:34:58;;;;;;;10.17;5.50;;;31.10;56.50;;;;;;5070861;28;20619;-84
2022/06/16 08:37:33;;;;;;;7.90;5.80;;;31.30;56.00;;;;;;5057280;28;20206;-84
2022/06/16 08:40:01;;;;;;;9.53;6.13;;;31.60;55.20;;;;;;5047659;28;20201;-84
2022/06/16 08:42:58;;;;;;;12.53;6.67;;;31.80;54.80;;;;;;5069851;28;20214;-84
2022/06/16 08:45:31;;;;;;;14.57;7.70;;;31.90;53.30;;;;;;5053703;28;20203;-84
2022/06/16 08:48:12;;;;;;;11.73;6.43;;;31.90;53.20;;;;;;5052094;28;20222;-84
2022/06/16 08:51:11;;;;;;;12.17;6.30;;;31.80;53.70;;;;;;5058962;28;20202;-83
2022/06/16 08:54:00;;;;;;;13.37;6.40;;;31.80;53.70;;;;;;5023254;28;20199;-84
2022/06/16 08:56:42;;;;;;;10.67;6.50;;;31.80;53.70;;;;;;5055798;28;20194;-84
2022/06/16 08:59:39;;;;;;;12.07;7.00;;;31.90;53.30;;;;;;5057397;28;20242;-84
2022/06/16 09:02:16;;;;;;;13.07;7.27;;;32.00;53.40;;;;;;5059197;28;20686;-83
2022/06/16 09:04:59;;;;;;;11.07;7.20;;;32.20;53.60;;;;;;5056597;28;20207;-84
2022/06/16 09:07:47;;;;;;;10.70;6.77;;;32.30;53.70;;;;;;5041087;28;20282;-84
2022/06/16 09:10:41;;;;;;;7.47;6.50;;;32.40;52.40;;;;;;5024229;28;20294;-84
2022/06/16 09:13:34;;;;;;;9.90;6.57;;;32.60;51.80;;;;;;5035826;28;20234;-84
2022/06/16 09:16:19;;;;;;;11.10;7.17;;;32.70;52.10;;;;;;5035077;28;20246;-84
2022/06/16 09:19:08;;;;;;;10.77;7.50;;;32.70;52.00;;;;;;5045532;28;20191;-84
2022/06/16 09:21:58;;;;;;;14.87;7.20;;;32.40;52.10;;;;;;5026798;28;20289;-84
2022/06/16 09:24:36;;;;;;;13.17;6.23;;;32.30;54.00;;;;;;5040057;28;20298;-84
2022/06/16 09:27:11;;;;;;;9.13;6.17;;;32.30;53.80;;;;;;5039835;28;20207;-84
2022/06/16 09:29:50;;;;;;;16.33;8.53;;;32.40;53.80;;;;;;5043324;28;20571;-83
2022/06/16 09:32:30;;;;;;;13.13;7.97;;;32.60;52.90;;;;;;5026587;28;20257;-84
2022/06/16 09:35:23;;;;;;;11.80;8.03;;;32.80;53.10;;;;;;5053645;28;20206;-84
2022/06/16 09:38:08;;;;;;;12.60;6.60;;;33.10;52.20;;;;;;5044798;28;20196;-84
2022/06/16 09:44:13;;;;;;;11.10;8.30;;;33.40;51.10;;;;;;5075059;28;20233;-83
2022/06/16 09:46:53;;;;;;;13.43;8.13;;;33.50;51.40;;;;;;5039692;28;20206;-84
2022/06/16 09:49:40;;;;;;;14.07;7.73;;;33.50;50.10;;;;;;5064640;28;20202;-84
2022/06/16 09:52:47;;;;;;;10.73;7.43;;;33.60;50.40;;;;;;5080821;28;20269;-84
2022/06/16 09:55:39;;;;;;;14.47;8.53;;;33.60;51.10;;;;;;5074456;28;20206;-84
2022/06/16 09:58:35;;;;;;;10.37;7.37;;;33.80;50.70;;;;;;5064518;28;20228;-83
2022/06/16 10:01:09;;;;;;;10.97;7.90;;;34.10;50.20;;;;;;5082727;28;20209;-84
2022/06/16 10:03:51;;;;;;;15.33;9.00;;;34.30;49.80;;;;;;5078955;28;20259;-84
2022/06/16 10:06:57;;;;;;;11.97;8.47;;;34.40;50.60;;;;;;5068156;28;20209;-84
2022/06/16 10:09:36;;;;;;;12.60;8.23;;;34.50;49.90;;;;;;5069785;28;20269;-84
2022/06/16 10:12:30;;;;;;;9.43;6.80;;;34.70;49.60;;;;;;5080331;28;20948;-83
2022/06/16 10:15:16;;;;;;;11.00;7.97;;;34.90;50.00;;;;;;5067026;28;20198;-83
2022/06/16 10:17:45;;;;;;;14.50;8.47;;;35.00;49.70;;;;;;5088563;28;20193;-83
2022/06/16 10:20:15;;;;;;;10.63;7.97;;;35.20;49.40;;;;;;5080833;28;20206;-83
2022/06/16 10:22:53;;;;;;;12.73;7.70;;;35.30;49.70;;;;;;5068260;28;20217;-83
2022/06/16 10:25:29;;;;;;;10.47;8.50;;;35.40;49.00;;;;;;5066432;28;20312;-83
2022/06/16 10:28:38;;;;;;;16.97;8.77;;;35.50;49.00;;;;;;5078629;28;20271;-83
2022/06/16 10:31:06;;;;;;;11.03;8.63;;;35.50;49.10;;;;;;5049201;28;20253;-84
2022/06/16 10:33:53;;;;;;;12.30;8.90;;;35.50;49.00;;;;;;5058246;28;20521;-83
2022/06/16 10:36:23;;;;;;;13.00;10.00;;;35.60;48.80;;;;;;5048679;28;20206;-84
2022/06/16 10:39:06;;;;;;;12.97;8.03;;;35.70;48.30;;;;;;5075254;28;20198;-83
2022/06/16 10:41:49;;;;;;;14.87;9.60;;;35.70;49.00;;;;;;5083477;28;20238;-84
2022/06/16 10:44:19;;;;;;;10.27;9.37;;;35.70;48.80;;;;;;5066890;28;20243;-83
2022/06/16 10:47:17;;;;;;;10.37;9.37;;;35.70;48.10;;;;;;5069805;28;20728;-83
2022/06/16 10:50:06;;;;;;;10.87;9.90;;;35.70;48.60;;;;;;5000224;28;20246;-83
2022/06/16 10:53:01;;;;;;;13.33;9.00;;;35.70;48.40;;;;;;5000697;28;20212;-83
2022/06/16 10:55:46;;;;;;;9.37;7.33;;;35.70;48.50;;;;;;5019331;28;20251;-82
2022/06/16 10:58:23;;;;;;;14.20;7.23;;;35.80;48.00;;;;;;5025441;28;20681;-81
2022/06/16 11:01:23;;;;;;;8.07;6.97;;;35.80;48.70;;;;;;5020239;28;20213;-82
2022/06/16 11:04:01;;;;;;;11.90;9.23;;;36.00;48.20;;;;;;5051240;28;20202;-83
2022/06/16 11:06:29;;;;;;;14.30;9.23;;;36.20;47.00;;;;;;5063688;28;20209;-83
2022/06/16 11:09:04;;;;;;;12.10;10.90;;;36.30;47.10;;;;;;5072302;28;20629;-83
2022/06/16 11:11:46;;;;;;;10.60;9.50;;;36.40;45.70;;;;;;5067962;28;20225;-83
2022/06/16 11:14:26;;;;;;;8.87;8.03;;;36.30;45.80;;;;;;5071753;28;20205;-83
2022/06/16 11:16:55;;;;;;;12.30;8.57;;;36.20;47.90;;;;;;5063090;28;20228;-83
2022/06/16 11:19:33;;;;;;;15.03;8.77;;;36.30;47.00;;;;;;5052790;28;20198;-82
2022/06/16 11:22:30;;;;;;;11.60;8.80;;;36.40;46.70;;;;;;5059502;28;20240;-83
2022/06/16 11:25:12;;;;;;;10.93;8.30;;;36.40;46.50;;;;;;5069087;28;20206;-83
2022/06/16 11:27:54;;;;;;;13.05;8.38;;;36.30;47.30;;;;;;5050784;28;20224;-83
2022/06/16 11:30:43;;;;;;;10.70;9.10;;;36.30;47.20;;;;;;5076950;28;20285;-82
2022/06/16 11:36:25;;;;;;;8.23;6.63;;;36.40;46.20;;;;;;5079967;28;20197;-83
2022/06/16 11:39:22;;;;;;;10.70;8.83;;;36.50;47.30;;;;;;5068639;28;20230;-83
2022/06/16 11:41:53;;;;;;;11.90;8.53;;;36.70;47.30;;;;;;5062080;28;20244;-83
2022/06/16 11:44:29;;;;;;;8.20;7.43;;;36.80;46.50;;;;;;5078372;28;20264;-81
2022/06/16 11:47:16;;;;;;;8.73;7.83;;;36.90;45.00;;;;;;5072257;28;20189;-83
2022/06/16 11:50:29;;;;;;;8.95;8.05;;;36.80;44.00;;;;;;5061778;28;20229;-82
2022/06/16 11:53:27;;;;;;;10.60;7.60;;;36.60;44.60;;;;;;5051151;28;20279;-83
2022/06/16 11:56:22;;;;;;;7.53;6.70;;;36.40;44.80;;;;;;5055926;28;20217;-82
2022/06/16 11:59:08;;;;;;;8.40;7.03;;;36.30;45.40;;;;;;5063595;28;20327;-82
2022/06/16 12:01:46;;;;;;;8.77;6.57;;;36.20;45.60;;;;;;5069151;28;20198;-81
2022/06/16 12:04:41;;;;;;;7.50;6.77;;;36.20;45.50;;;;;;5065680;28;20293;-83
2022/06/16 12:07:34;;;;;;;8.30;7.50;;;36.10;45.10;;;;;;5048738;28;20210;-82
2022/06/16 12:10:16;;;;;;;10.10;7.40;;;36.00;44.50;;;;;;5071008;28;20203;-83
2022/06/16 12:12:56;;;;;;;9.07;6.70;;;36.10;46.00;;;;;;5076227;28;20288;-82
2022/06/16 12:15:33;;;;;;;7.50;6.70;;;36.20;46.90;;;;;;5078803;28;20205;-82
2022/06/16 12:18:24;;;;;;;14.38;6.60;;;36.50;46.20;;;;;;5067939;28;20273;-83
2022/06/16 12:20:58;;;;;;;9.50;6.43;;;36.70;45.10;;;;;;5049432;28;20229;-82
2022/06/16 12:23:42;;;;;;;8.47;6.80;;;36.80;44.60;;;;;;5085015;28;20204;-82
2022/06/16 12:26:24;;;;;;;10.17;5.83;;;36.80;43.40;;;;;;5077402;28;20206;-83
2022/06/16 12:29:23;;;;;;;10.02;6.72;;;36.70;44.00;;;;;;5064999;28;20198;-82
2022/06/16 12:32:09;;;;;;;6.47;5.88;;;36.50;44.40;;;;;;5045085;28;20221;-82
2022/06/16 12:34:58;;;;;;;9.23;6.53;;;36.40;44.30;;;;;;5065812;28;20215;-83
2022/06/16 12:37:31;;;;;;;10.23;6.03;;;36.20;44.20;;;;;;5072199;28;20252;-83
2022/06/16 12:40:07;;;;;;;9.52;8.02;;;36.20;45.10;;;;;;5080064;28;20208;-83
2022/06/16 12:42:39;;;;;;;6.45;5.90;;;36.20;44.70;;;;;;5063136;28;20213;-82
2022/06/16 12:45:16;;;;;;;7.37;6.57;;;36.20;44.90;;;;;;5053113;28;20213;-84
2022/06/16 12:47:59;;;;;;;8.33;6.77;;;36.30;45.00;;;;;;5069902;28;20297;-83
2022/06/16 12:50:37;;;;;;;10.97;6.47;;;36.50;45.30;;;;;;5078614;28;20272;-82
2022/06/16 12:53:12;;;;;;;8.73;6.37;;;36.60;45.40;;;;;;5063953;28;20217;-83
2022/06/16 12:56:00;;;;;;;7.33;5.97;;;36.80;44.20;;;;;;5039020;28;20255;-82
2022/06/16 12:58:49;;;;;;;8.97;6.57;;;36.90;43.60;;;;;;5079929;28;20289;-81
2022/06/16 13:01:17;;;;;;;7.47;6.78;;;37.00;43.20;;;;;;5058479;28;20271;-83
2022/06/16 13:04:10;;;;;;;10.32;7.30;;;37.10;44.20;;;;;;5078538;28;20206;-83
2022/06/16 13:06:40;;;;;;;8.77;7.00;;;37.00;43.40;;;;;;5083383;28;20201;-83
2022/06/16 13:09:12;;;;;;;8.20;7.30;;;36.90;43.80;;;;;;5063992;28;20229;-83
2022/06/16 13:11:58;;;;;;;9.47;7.20;;;36.80;43.90;;;;;;5060331;28;20271;-83
2022/06/16 13:14:44;;;;;;;11.90;6.63;;;36.70;44.00;;;;;;5069907;28;20259;-83
2022/06/16 13:17:14;;;;;;;10.13;5.70;;;36.60;43.30;;;;;;5053396;28;20541;-83
2022/06/16 13:19:54;;;;;;;7.47;5.93;;;36.60;42.90;;;;;;5074361;28;20229;-83
2022/06/16 13:22:31;;;;;;;7.73;6.33;;;36.60;42.90;;;;;;5068412;28;20260;-83
2022/06/16 13:25:09;;;;;;;8.63;6.35;;;36.70;43.60;;;;;;5055362;28;20210;-82
2022/06/16 13:27:49;;;;;;;7.13;6.10;;;36.70;44.30;;;;;;5066110;28;20248;-82
2022/06/16 13:30:38;;;;;;;10.68;5.97;;;36.80;44.20;;;;;;5065196;28;20204;-83
2022/06/16 13:33:08;;;;;;;10.43;7.30;;;36.80;43.60;;;;;;5051060;28;20225;-83
2022/06/16 13:35:41;;;;;;;11.23;6.20;;;36.80;43.40;;;;;;5073374;28;20213;-83
2022/06/16 13:38:11;;;;;;;7.32;6.40;;;36.80;43.40;;;;;;5077203;28;20206;-83
2022/06/16 13:40:41;;;;;;;8.25;6.38;;;36.80;43.40;;;;;;5052988;28;20217;-82
2022/06/16 13:43:15;;;;;;;6.93;6.10;;;36.80;43.00;;;;;;5084727;28;20249;-83
2022/06/16 13:45:59;;;;;;;9.60;6.80;;;36.90;43.00;;;;;;5061063;28;20206;-83
2022/06/16 13:48:52;;;;;;;7.30;6.35;;;36.90;43.00;;;;;;5053806;28;20202;-83
2022/06/16 13:51:44;;;;;;;12.18;6.15;;;36.80;43.10;;;;;;5059557;28;20222;-82
2022/06/16 13:54:16;;;;;;;7.50;6.15;;;36.80;44.00;;;;;;5051724;28;20193;-83
2022/06/16 13:56:47;;;;;;;9.75;6.57;;;36.80;43.20;;;;;;5068138;28;20202;-82